createdAt,value
2023-04-18T00:00:23.569Z,4.32
2023-04-18T00:02:57.370Z,4.70
2023-04-18T00:05:28.527Z,6.68
2023-04-18T00:07:59.477Z,4.32
2023-04-18T00:10:30.141Z,4.53
2023-04-18T00:13:01.441Z,4.35
2023-04-18T00:15:32.646Z,4.43
2023-04-18T00:18:06.762Z,4.00
2023-04-18T00:20:39.381Z,4.57
2023-04-18T00:23:14.280Z,3.30
2023-04-18T00:25:45.113Z,3.40
2023-04-18T00:28:15.920Z,4.03
2023-04-18T00:30:46.653Z,4.10
2023-04-18T00:33:20.394Z,3.90
2023-04-18T00:35:51.473Z,3.65
2023-04-18T00:38:22.162Z,4.00
2023-04-18T00:40:53.280Z,3.65
2023-04-18T00:43:27.137Z,3.60
2023-04-18T00:45:59.120Z,3.65
2023-04-18T00:48:33.402Z,3.90
2023-04-18T00:51:04.355Z,4.07
2023-04-18T00:53:35.490Z,4.70
2023-04-18T00:56:07.871Z,4.32
2023-04-18T00:58:40.956Z,4.30
2023-04-18T01:01:13.782Z,4.30
2023-04-18T01:03:47.489Z,3.92
2023-04-18T01:06:19.188Z,4.57
2023-04-18T01:08:50.071Z,4.50
2023-04-18T01:11:21.837Z,4.55
2023-04-18T01:14:02.716Z,4.68
2023-04-18T01:16:37.316Z,4.88
2023-04-18T01:19:11.717Z,4.43
2023-04-18T01:21:45.851Z,4.75
2023-04-18T01:24:22.006Z,4.40
2023-04-18T01:26:52.785Z,4.68
2023-04-18T01:29:23.677Z,5.55
2023-04-18T01:31:54.505Z,5.30
2023-04-18T01:34:25.278Z,5.53
2023-04-18T01:36:56.108Z,5.18
2023-04-18T01:39:29.574Z,5.43
2023-04-18T01:42:01.720Z,6.40
2023-04-18T01:44:32.389Z,6.22
2023-04-18T01:47:03.180Z,5.53
2023-04-18T01:49:36.904Z,6.43
2023-04-18T01:52:07.638Z,5.72
2023-04-18T01:54:41.123Z,5.65
2023-04-18T01:57:11.994Z,6.13
2023-04-18T01:59:42.980Z,6.32
2023-04-18T02:02:13.974Z,6.50
2023-04-18T02:04:44.921Z,6.25
2023-04-18T02:07:15.679Z,6.95
2023-04-18T02:09:49.080Z,7.10
2023-04-18T02:12:19.863Z,6.75
2023-04-18T02:14:54.925Z,7.22
2023-04-18T02:17:26.334Z,7.22
2023-04-18T02:19:58.952Z,7.30
2023-04-18T02:22:29.864Z,6.70
2023-04-18T02:25:03.346Z,7.32
2023-04-18T02:27:37.925Z,7.22
2023-04-18T02:30:10.311Z,7.20
2023-04-18T02:32:41.202Z,6.65
2023-04-18T02:35:12.981Z,7.18
2023-04-18T02:37:43.994Z,7.30
2023-04-18T02:40:19.358Z,7.57
2023-04-18T02:42:51.414Z,7.90
2023-04-18T02:45:22.584Z,7.90
2023-04-18T02:47:56.072Z,7.18
2023-04-18T02:50:29.382Z,7.65
2023-04-18T02:53:01.362Z,7.50
2023-04-18T02:55:46.256Z,7.00
2023-04-18T02:58:17.160Z,7.13
2023-04-18T03:00:58.111Z,7.63
2023-04-18T03:03:31.856Z,7.82
2023-04-18T03:06:20.599Z,7.38
2023-04-18T03:08:52.158Z,8.55
2023-04-18T03:11:25.967Z,8.15
2023-04-18T03:13:59.199Z,7.38
2023-04-18T03:16:38.263Z,6.93
2023-04-18T03:19:11.259Z,6.40
2023-04-18T03:21:42.221Z,6.45
2023-04-18T03:24:15.078Z,6.50
2023-04-18T03:26:51.736Z,6.55
2023-04-18T03:29:25.887Z,6.20
2023-04-18T03:31:56.805Z,5.65
2023-04-18T03:34:27.730Z,5.90
2023-04-18T03:36:59.053Z,5.70
2023-04-18T03:39:32.718Z,6.40
2023-04-18T03:42:06.577Z,6.20
2023-04-18T03:44:38.542Z,6.93
2023-04-18T03:47:09.351Z,7.47
2023-04-18T03:49:44.010Z,7.43
2023-04-18T03:52:16.401Z,7.53
2023-04-18T03:54:47.243Z,8.50
2023-04-18T03:57:22.528Z,8.98
2023-04-18T03:59:53.385Z,8.25
2023-04-18T04:02:25.623Z,8.32
2023-04-18T04:04:56.602Z,8.10
2023-04-18T04:07:27.595Z,7.93
2023-04-18T04:09:58.685Z,7.30
2023-04-18T04:12:32.318Z,7.72
2023-04-18T04:15:03.569Z,7.60
2023-04-18T04:17:36.374Z,6.78
2023-04-18T04:20:07.884Z,6.85
2023-04-18T04:22:39.884Z,6.25
2023-04-18T04:25:14.123Z,7.13
2023-04-18T04:27:54.044Z,5.93
2023-04-18T04:30:26.800Z,7.47
2023-04-18T04:32:57.763Z,7.88
2023-04-18T04:35:28.731Z,6.80
2023-04-18T04:38:01.952Z,7.00
2023-04-18T04:40:41.680Z,7.55
2023-04-18T04:43:20.856Z,8.25
2023-04-18T04:45:53.435Z,9.43
2023-04-18T04:48:27.661Z,8.80
2023-04-18T04:50:59.992Z,8.48
2023-04-18T04:53:33.409Z,8.55
2023-04-18T04:56:07.509Z,8.27
2023-04-18T04:58:41.027Z,7.82
2023-04-18T05:01:13.316Z,8.05
2023-04-18T05:03:44.922Z,6.47
2023-04-18T05:06:21.092Z,7.57
2023-04-18T05:08:53.310Z,7.53
2023-04-18T05:11:23.961Z,7.15
2023-04-18T05:13:57.354Z,6.25
2023-04-18T05:16:28.088Z,7.20
2023-04-18T05:18:58.931Z,5.82
2023-04-18T05:21:29.818Z,7.65
2023-04-18T05:24:00.590Z,5.75
2023-04-18T05:26:31.320Z,8.30
2023-04-18T05:29:04.668Z,5.18
2023-04-18T05:31:35.739Z,5.65
2023-04-18T05:34:07.175Z,9.93
2023-04-18T05:36:37.985Z,5.22
2023-04-18T05:39:08.645Z,8.05
2023-04-18T05:41:39.600Z,10.88
2023-04-18T05:44:12.933Z,5.75
2023-04-18T05:46:43.832Z,22.23
2023-04-18T05:49:15.071Z,4.80
2023-04-18T05:51:45.863Z,5.43
2023-04-18T05:54:16.624Z,4.55
2023-04-18T05:56:47.656Z,5.28
2023-04-18T05:59:21.021Z,3.90
2023-04-18T06:01:52.525Z,4.63
2023-04-18T06:04:23.771Z,3.85
2023-04-18T06:06:54.668Z,11.13
2023-04-18T06:09:25.369Z,3.13
2023-04-18T06:11:58.064Z,5.30
2023-04-18T06:14:31.615Z,3.70
2023-04-18T06:17:02.630Z,6.63
2023-04-18T06:19:35.869Z,6.30
2023-04-18T06:22:06.857Z,4.03
2023-04-18T06:24:37.828Z,4.38
2023-04-18T06:27:17.570Z,5.95
2023-04-18T06:29:57.599Z,7.05
2023-04-18T06:32:28.449Z,6.35
2023-04-18T06:34:59.424Z,7.07
2023-04-18T06:37:30.412Z,5.10
2023-04-18T06:40:01.079Z,5.60
2023-04-18T06:42:32.566Z,3.88
2023-04-18T06:45:06.881Z,3.30
2023-04-18T06:47:39.766Z,3.08
2023-04-18T06:50:12.172Z,2.90
2023-04-18T06:52:45.857Z,2.78
2023-04-18T06:55:17.396Z,3.00
2023-04-18T06:57:48.255Z,2.70
2023-04-18T07:00:22.317Z,3.05
2023-04-18T07:02:53.410Z,2.50
2023-04-18T07:05:24.548Z,6.80
2023-04-18T07:07:55.297Z,2.80
2023-04-18T07:10:26.188Z,3.00
2023-04-18T07:12:56.975Z,2.20
2023-04-18T07:15:30.496Z,2.42
2023-04-18T07:18:01.442Z,2.08
2023-04-18T07:20:32.391Z,2.22
2023-04-18T07:23:03.265Z,2.47
2023-04-18T07:25:34.826Z,2.78
2023-04-18T07:28:05.772Z,2.65
2023-04-18T07:30:39.173Z,3.90
2023-04-18T07:33:09.976Z,2.80
2023-04-18T07:35:41.119Z,2.30
2023-04-18T07:38:12.099Z,2.20
2023-04-18T07:40:42.821Z,2.40
2023-04-18T07:43:13.829Z,2.42
2023-04-18T07:45:47.194Z,2.20
2023-04-18T07:48:18.033Z,2.33
2023-04-18T07:50:48.881Z,2.40
2023-04-18T07:53:19.786Z,2.10
2023-04-18T07:55:50.510Z,2.90
2023-04-18T07:58:21.389Z,2.47
2023-04-18T08:00:54.683Z,2.85
2023-04-18T08:03:25.677Z,3.20
2023-04-18T08:05:56.986Z,3.35
2023-04-18T08:08:27.877Z,3.05
2023-04-18T08:10:58.594Z,4.35
2023-04-18T08:13:29.438Z,2.80
2023-04-18T08:16:03.419Z,2.13
2023-04-18T08:18:34.328Z,2.27
2023-04-18T08:21:05.328Z,2.70
2023-04-18T08:23:36.127Z,2.42
2023-04-18T08:26:06.777Z,1.90
2023-04-18T08:28:37.633Z,2.45
2023-04-18T08:31:15.442Z,3.13
2023-04-18T08:33:46.557Z,3.58
2023-04-18T08:36:17.623Z,2.85
2023-04-18T08:38:48.290Z,2.22
2023-04-18T08:41:23.994Z,2.35
2023-04-18T08:43:56.973Z,2.20
2023-04-18T08:46:32.642Z,2.55
2023-04-18T08:49:05.050Z,2.60
2023-04-18T08:51:36.043Z,2.30
2023-04-18T08:54:09.842Z,2.78
2023-04-18T08:56:41.301Z,2.47
2023-04-18T08:59:12.285Z,2.30
2023-04-18T09:02:01.876Z,2.65
2023-04-18T09:04:38.293Z,2.90
2023-04-18T09:07:11.226Z,2.80
2023-04-18T09:09:47.205Z,3.10
2023-04-18T09:12:19.846Z,2.33
2023-04-18T09:14:50.739Z,2.55
2023-04-18T09:17:41.980Z,2.75
2023-04-18T09:20:16.004Z,3.00
2023-04-18T09:22:49.263Z,2.95
2023-04-18T09:25:30.407Z,3.78
2023-04-18T09:28:02.201Z,3.03
2023-04-18T09:30:35.303Z,2.50
2023-04-18T09:33:11.582Z,3.38
2023-04-18T09:35:42.956Z,2.67
2023-04-18T09:38:13.714Z,2.97
2023-04-18T09:40:44.430Z,2.22
2023-04-18T09:43:22.514Z,2.50
2023-04-18T09:45:54.900Z,3.35
2023-04-18T09:48:28.327Z,3.40
2023-04-18T09:51:00.091Z,3.30
2023-04-18T09:53:33.283Z,3.40
2023-04-18T09:56:05.376Z,3.30
2023-04-18T09:58:40.656Z,3.35
2023-04-18T10:03:51.316Z,3.45
2023-04-18T10:06:22.198Z,3.35
2023-04-18T10:08:55.752Z,2.60
2023-04-18T10:11:27.271Z,3.00
2023-04-18T10:14:01.724Z,2.80
2023-04-18T10:16:34.834Z,4.00
2023-04-18T10:19:30.464Z,3.07
2023-04-18T10:22:02.701Z,3.05
2023-04-18T10:24:57.209Z,3.80
2023-04-18T10:27:58.446Z,4.22
2023-04-18T10:30:54.648Z,3.53
2023-04-18T10:33:31.968Z,3.60
2023-04-18T10:36:21.068Z,4.07
2023-04-18T10:38:53.348Z,3.22
2023-04-18T10:41:26.546Z,3.47
2023-04-18T10:44:18.663Z,3.30
2023-04-18T10:47:24.111Z,3.42
2023-04-18T10:50:15.981Z,3.37
2023-04-18T10:52:49.403Z,3.42
2023-04-18T10:55:23.690Z,3.45
2023-04-18T10:57:56.801Z,3.73
2023-04-18T11:00:27.843Z,3.95
2023-04-18T11:03:00.643Z,4.13
2023-04-18T11:05:32.283Z,4.80
2023-04-18T11:08:05.632Z,4.85
2023-04-18T11:10:36.208Z,5.03
2023-04-18T11:13:08.927Z,4.82
2023-04-18T11:15:40.220Z,5.03
2023-04-18T11:18:12.758Z,6.00
2023-04-18T11:20:50.765Z,5.63
2023-04-18T11:23:25.994Z,5.55
2023-04-18T11:25:58.905Z,6.00
2023-04-18T11:28:30.297Z,5.70
2023-04-18T11:31:03.362Z,5.93
2023-04-18T11:33:34.310Z,6.32
2023-04-18T11:36:05.980Z,5.93
2023-04-18T11:38:40.412Z,6.45
2023-04-18T11:41:16.802Z,6.20
2023-04-18T11:43:48.623Z,5.63
2023-04-18T11:46:19.383Z,5.13
2023-04-18T11:48:50.816Z,4.43
2023-04-18T11:51:38.924Z,4.93
2023-04-18T11:54:42.187Z,4.55
2023-04-18T11:57:23.960Z,4.22
2023-04-18T11:59:56.433Z,5.03
2023-04-18T12:02:29.232Z,6.25
2023-04-18T12:05:01.855Z,8.00
2023-04-18T12:07:36.665Z,5.63
2023-04-18T12:10:12.023Z,6.85
2023-04-18T12:12:51.625Z,5.47
2023-04-18T12:15:24.376Z,5.80
2023-04-18T12:17:55.113Z,6.80
2023-04-18T12:20:27.222Z,6.45
2023-04-18T12:22:58.078Z,6.78
2023-04-18T12:25:31.963Z,5.70
2023-04-18T12:28:03.925Z,5.75
2023-04-18T12:30:37.810Z,5.93
2023-04-18T12:33:09.519Z,5.40
2023-04-18T12:35:40.143Z,6.18
2023-04-18T12:38:10.888Z,7.07
2023-04-18T12:40:44.772Z,5.00
2023-04-18T12:43:15.523Z,4.78
2023-04-18T12:45:46.431Z,5.38
2023-04-18T12:48:17.235Z,5.13
2023-04-18T12:50:48.171Z,5.57
2023-04-18T12:53:18.881Z,5.45
2023-04-18T12:55:52.323Z,5.60
2023-04-18T12:58:23.245Z,5.70
2023-04-18T13:00:54.139Z,5.13
2023-04-18T13:03:25.334Z,5.10
2023-04-18T13:05:56.831Z,5.53
2023-04-18T13:08:27.607Z,5.85
2023-04-18T13:11:01.663Z,5.88
2023-04-18T13:13:34.392Z,5.65
2023-04-18T13:16:06.659Z,6.00
2023-04-18T13:18:37.394Z,6.75
2023-04-18T13:21:08.810Z,7.15
2023-04-18T13:23:39.621Z,7.00
2023-04-18T13:26:13.114Z,6.35
2023-04-18T13:28:43.827Z,8.65
2023-04-18T13:31:16.842Z,5.70
2023-04-18T13:33:47.781Z,5.78
2023-04-18T13:36:18.562Z,5.70
2023-04-18T13:38:49.825Z,5.78
2023-04-18T13:41:24.805Z,6.00
2023-04-18T13:43:55.551Z,6.90
2023-04-18T13:46:27.759Z,6.32
2023-04-18T13:48:58.905Z,7.43
2023-04-18T13:51:30.053Z,6.60
2023-04-18T13:54:01.464Z,5.68
2023-04-18T13:56:35.152Z,6.85
2023-04-18T13:59:05.988Z,7.63
2023-04-18T14:01:36.831Z,6.63
2023-04-18T14:04:07.623Z,7.32
2023-04-18T14:06:38.671Z,7.35
2023-04-18T14:09:09.899Z,6.93
2023-04-18T14:11:43.800Z,8.63
2023-04-18T14:14:15.057Z,10.98
2023-04-18T14:16:46.410Z,10.95
2023-04-18T14:19:18.275Z,8.35
2023-04-18T14:21:49.825Z,10.65
2023-04-18T14:24:20.664Z,8.45
2023-04-18T14:26:54.051Z,9.88
2023-04-18T14:29:24.675Z,8.43
2023-04-18T14:31:55.430Z,7.25
2023-04-18T14:34:26.237Z,7.70
2023-04-18T14:36:57.019Z,6.38
2023-04-18T14:39:28.046Z,7.60
2023-04-18T14:42:01.978Z,7.25
2023-04-18T14:44:33.393Z,6.22
2023-04-18T14:47:04.244Z,6.40
2023-04-18T14:49:35.081Z,5.43
2023-04-18T14:52:05.970Z,6.10
2023-04-18T14:54:36.840Z,7.28
2023-04-18T14:57:10.561Z,7.32
2023-04-18T14:59:41.422Z,5.97
2023-04-18T15:02:12.283Z,6.35
2023-04-18T15:04:43.269Z,6.10
2023-04-18T15:07:15.502Z,6.53
2023-04-18T15:09:46.259Z,6.07
2023-04-18T15:12:19.576Z,5.07
2023-04-18T15:14:50.402Z,6.15
2023-04-18T15:17:21.264Z,6.63
2023-04-18T15:19:52.056Z,6.22
2023-04-18T15:22:23.194Z,4.88
2023-04-18T15:24:54.087Z,6.47
2023-04-18T15:27:27.464Z,6.30
2023-04-18T15:29:58.375Z,5.55
2023-04-18T15:32:29.423Z,5.97
2023-04-18T15:35:00.185Z,6.65
2023-04-18T15:37:30.814Z,7.05
2023-04-18T15:40:02.217Z,6.55
2023-04-18T15:42:37.189Z,5.50
2023-04-18T15:45:09.278Z,17.50
2023-04-18T15:47:40.892Z,8.50
2023-04-18T15:50:12.708Z,9.82
2023-04-18T15:52:44.133Z,8.35
2023-04-18T15:55:15.715Z,6.97
2023-04-18T15:57:49.069Z,7.05
2023-04-18T16:00:21.152Z,7.03
2023-04-18T16:02:52.395Z,7.63
2023-04-18T16:05:23.648Z,7.70
2023-04-18T16:07:56.492Z,7.63
2023-04-18T16:10:27.364Z,6.75
2023-04-18T16:13:02.577Z,10.82
2023-04-18T16:15:35.829Z,7.80
2023-04-18T16:18:06.596Z,8.60
2023-04-18T16:20:37.395Z,8.85
2023-04-18T16:23:08.190Z,10.82
2023-04-18T16:25:39.007Z,12.50
2023-04-18T16:28:12.405Z,10.40
2023-04-18T16:30:44.163Z,10.90
2023-04-18T16:33:15.007Z,13.90
2023-04-18T16:35:46.015Z,16.30
2023-04-18T16:38:16.872Z,16.42
2023-04-18T16:40:47.661Z,15.93
2023-04-18T16:43:23.322Z,11.40
2023-04-18T16:48:24.368Z,9.70
2023-04-18T16:50:55.335Z,11.85
2023-04-18T16:53:26.673Z,10.35
2023-04-18T16:55:57.514Z,10.48
2023-04-18T16:58:30.808Z,9.88
2023-04-18T17:01:01.612Z,10.10
2023-04-18T17:03:32.607Z,9.45
2023-04-18T17:06:04.043Z,9.43
2023-04-18T17:08:34.835Z,10.27
2023-04-18T17:11:05.642Z,9.60
2023-04-18T17:13:39.062Z,10.90
2023-04-18T17:16:11.150Z,10.43
2023-04-18T17:18:42.070Z,10.00
2023-04-18T17:21:13.589Z,10.90
2023-04-18T17:23:44.486Z,11.93
2023-04-18T17:26:15.274Z,13.68
2023-04-18T17:28:48.590Z,11.38
2023-04-18T17:31:19.564Z,10.50
2023-04-18T17:33:51.175Z,12.65
2023-04-18T17:36:22.120Z,13.25
2023-04-18T17:38:52.972Z,12.90
2023-04-18T17:41:24.345Z,14.88
2023-04-18T17:43:58.466Z,14.38
2023-04-18T17:46:29.461Z,14.63
2023-04-18T17:49:00.301Z,12.35
2023-04-18T17:51:31.440Z,12.52
2023-04-18T17:54:02.200Z,12.65
2023-04-18T17:56:33.493Z,13.10
2023-04-18T17:59:07.756Z,12.70
2023-04-18T18:01:38.763Z,11.52
2023-04-18T18:04:09.685Z,10.57
2023-04-18T18:06:41.047Z,10.68
2023-04-18T18:09:13.128Z,10.73
2023-04-18T18:11:44.019Z,10.38
2023-04-18T18:14:17.404Z,10.70
2023-04-18T18:16:48.259Z,10.13
2023-04-18T18:19:19.233Z,9.65
2023-04-18T18:21:50.269Z,9.63
2023-04-18T18:24:21.668Z,8.98
2023-04-18T18:26:52.469Z,8.70
2023-04-18T18:29:25.901Z,8.80
2023-04-18T18:31:56.683Z,9.50
2023-04-18T18:34:27.956Z,9.20
2023-04-18T18:36:58.786Z,9.45
2023-04-18T18:39:29.626Z,8.23
2023-04-18T18:42:01.472Z,7.90
2023-04-18T18:44:36.214Z,7.78
2023-04-18T18:47:07.051Z,8.20
2023-04-18T18:49:40.239Z,8.60
2023-04-18T18:52:11.382Z,8.55
2023-04-18T18:54:42.198Z,8.88
2023-04-18T18:57:12.996Z,8.32
2023-04-18T18:59:46.446Z,8.32
2023-04-18T19:02:17.526Z,8.88
2023-04-18T19:04:48.666Z,9.35
2023-04-18T19:07:19.573Z,9.13
2023-04-18T19:09:50.544Z,9.07
2023-04-18T19:12:21.353Z,8.07
2023-04-18T19:14:55.234Z,8.57
2023-04-18T19:17:26.170Z,7.15
2023-04-18T19:19:58.261Z,7.70
2023-04-18T19:22:28.912Z,7.07
2023-04-18T19:25:01.074Z,8.30
2023-04-18T19:27:35.638Z,8.05
2023-04-18T19:30:10.907Z,7.95
2023-04-18T19:32:42.747Z,7.70
2023-04-18T19:35:13.607Z,8.57
2023-04-18T19:37:44.878Z,9.38
2023-04-18T19:40:16.025Z,9.32
2023-04-18T19:42:46.961Z,9.00
2023-04-18T19:45:20.375Z,9.88
2023-04-18T19:47:51.353Z,8.50
2023-04-18T19:50:22.363Z,8.48
2023-04-18T19:52:53.266Z,8.40
2023-04-18T19:55:24.388Z,8.23
2023-04-18T19:57:57.974Z,8.95
2023-04-18T20:00:31.508Z,8.52
2023-04-18T20:03:02.450Z,8.50
2023-04-18T20:05:33.301Z,8.88
2023-04-18T20:08:04.832Z,9.35
2023-04-18T20:10:36.988Z,9.10
2023-04-18T20:13:08.445Z,9.00
2023-04-18T20:15:42.595Z,9.45
2023-04-18T20:18:13.398Z,8.85
2023-04-18T20:20:44.184Z,8.65
2023-04-18T20:23:15.286Z,8.20
2023-04-18T20:25:46.118Z,7.82
2023-04-18T20:28:17.034Z,8.07
2023-04-18T20:30:50.370Z,7.53
2023-04-18T20:33:21.336Z,7.25
2023-04-18T20:35:53.945Z,7.15
2023-04-18T20:38:26.288Z,7.00
2023-04-18T20:40:58.363Z,7.07
2023-04-18T20:43:29.036Z,6.28
2023-04-18T20:46:02.435Z,6.15
2023-04-18T20:48:33.213Z,6.47
2023-04-18T20:51:03.934Z,6.40
2023-04-18T20:53:34.846Z,6.38
2023-04-18T20:56:06.016Z,7.45
2023-04-18T20:58:36.878Z,8.13
2023-04-18T21:01:10.267Z,8.73
2023-04-18T21:03:41.162Z,9.25
2023-04-18T21:06:12.149Z,8.32
2023-04-18T21:08:42.840Z,7.88
2023-04-18T21:11:13.508Z,8.55
2023-04-18T21:13:44.313Z,7.10
2023-04-18T21:16:17.763Z,8.05
2023-04-18T21:18:48.547Z,8.30
2023-04-18T21:21:19.309Z,7.82
2023-04-18T21:23:50.108Z,7.90
2023-04-18T21:26:21.391Z,6.30
2023-04-18T21:28:59.523Z,5.95
2023-04-18T21:31:34.262Z,7.35
2023-04-18T21:34:06.404Z,7.05
2023-04-18T21:36:37.332Z,7.43
2023-04-18T21:39:08.650Z,6.43
2023-04-18T21:41:39.394Z,6.15
2023-04-18T21:44:10.850Z,6.72
2023-04-18T21:46:44.410Z,3.58
2023-04-18T21:49:15.574Z,3.65
2023-04-18T21:51:46.338Z,3.00
2023-04-18T21:54:17.234Z,2.85
2023-04-18T21:56:48.016Z,2.60
2023-04-18T21:59:18.974Z,2.30
2023-04-18T22:04:38.426Z,2.70
2023-04-18T22:07:09.188Z,2.45
2023-04-18T22:09:40.135Z,2.67
2023-04-18T22:12:11.827Z,2.83
2023-04-18T22:14:42.809Z,2.65
2023-04-18T22:17:16.166Z,3.50
2023-04-18T22:19:49.413Z,3.70
2023-04-18T22:22:20.348Z,4.22
2023-04-18T22:24:51.163Z,4.30
2023-04-18T22:27:21.898Z,3.63
2023-04-18T22:29:53.997Z,3.67
2023-04-18T22:32:27.497Z,3.45
2023-04-18T22:34:58.330Z,3.60
2023-04-18T22:37:29.044Z,3.13
2023-04-18T22:39:59.840Z,3.05
2023-04-18T22:42:31.621Z,2.78
2023-04-18T22:45:03.025Z,3.42
2023-04-18T22:47:37.840Z,3.90
2023-04-18T22:50:10.258Z,4.88
2023-04-18T22:52:41.018Z,4.55
2023-04-18T22:55:14.447Z,4.25
2023-04-18T22:57:45.451Z,4.25
2023-04-18T23:00:17.607Z,4.25
2023-04-18T23:02:52.042Z,5.25
2023-04-18T23:05:23.226Z,6.53
2023-04-18T23:07:53.955Z,8.95
2023-04-18T23:10:25.192Z,6.70
2023-04-18T23:12:55.929Z,4.60
2023-04-18T23:15:27.381Z,4.53
2023-04-18T23:18:00.898Z,3.10
2023-04-18T23:20:31.915Z,3.42
2023-04-18T23:23:02.659Z,3.45
2023-04-18T23:25:36.052Z,3.13
2023-04-18T23:28:07.238Z,3.33
2023-04-18T23:30:39.324Z,3.10
2023-04-18T23:33:12.675Z,2.67
2023-04-18T23:35:43.440Z,2.47
2023-04-18T23:38:14.500Z,2.72
2023-04-18T23:40:45.265Z,1.55
2023-04-18T23:43:15.986Z,1.92
2023-04-18T23:45:46.999Z,1.88
2023-04-18T23:48:20.432Z,2.03
2023-04-18T23:50:53.234Z,2.30
2023-04-18T23:53:25.209Z,2.28
2023-04-18T23:55:56.812Z,1.83
2023-04-18T23:58:27.486Z,2.00
